Time;durP1;ratioP1;P1;durP2;ratioP2;P2;SDS_P1;SDS_P2;PMS_P1;PMS_P2;Temp;Humidity;BMP_temperature;BMP_pressure;BME280_temperature;BME280_humidity;BME280_pressure;Samples;Min_cycle;Max_cycle;Signal;HPM_P1;HPM_P2
2021/03/29 00:01:33;;;;;;;7.57;1.45;;;;;;;;;;10320635;28;20120;-63
2021/03/29 00:06:31;;;;;;;6.77;1.50;;;;;;;;;;10316147;28;20148;-62
2021/03/29 00:11:29;;;;;;;8.93;3.00;;;;;;;;;;10313445;28;20124;-63
2021/03/29 00:16:27;;;;;;;3.78;1.45;;;;;;;;;;10307390;28;20657;-66
2021/03/29 00:21:25;;;;;;;2.88;1.33;;;;;;;;;;10306313;28;20207;-64
2021/03/29 00:26:26;;;;;;;3.83;1.40;;;;;;;;;;10314804;28;20124;-64
2021/03/29 00:31:23;;;;;;;8.65;1.73;;;;;;;;;;10303372;28;20495;-64
2021/03/29 00:36:23;;;;;;;5.53;1.47;;;;;;;;;;10317873;28;20496;-64
2021/03/29 00:41:21;;;;;;;2.15;1.10;;;;;;;;;;10324082;28;20033;-65
2021/03/29 00:46:19;;;;;;;5.80;1.77;;;;;;;;;;10312697;28;20037;-64
2021/03/29 00:51:17;;;;;;;8.65;1.63;;;;;;;;;;10308845;28;20128;-64
2021/03/29 00:56:19;;;;;;;8.07;1.20;;;;;;;;;;10321627;28;20034;-62
2021/03/29 01:01:21;;;;;;;9.02;2.20;;;;;;;;;;10316155;28;20041;-63
2021/03/29 01:06:19;;;;;;;2.72;1.48;;;;;;;;;;10306246;28;20500;-64
2021/03/29 01:11:18;;;;;;;6.30;1.60;;;;;;;;;;10320873;28;20424;-64
2021/03/29 01:16:17;;;;;;;3.53;1.40;;;;;;;;;;10306406;28;20726;-63
2021/03/29 01:21:20;;;;;;;6.80;1.83;;;;;;;;;;10312642;28;20148;-64
2021/03/29 01:26:35;;;;;;;3.08;1.50;;;;;;;;;;10300338;28;20041;-63
2021/03/29 01:31:32;;;;;;;3.72;1.08;;;;;;;;;;10305617;28;20817;-63
2021/03/29 01:36:30;;;;;;;6.77;1.40;;;;;;;;;;10302466;28;20471;-64
2021/03/29 01:41:28;;;;;;;2.38;1.10;;;;;;;;;;10317153;28;20040;-64
2021/03/29 01:46:25;;;;;;;3.53;0.90;;;;;;;;;;10310114;28;20105;-64
2021/03/29 01:51:23;;;;;;;7.70;1.03;;;;;;;;;;10307872;28;20025;-64
2021/03/29 01:56:20;;;;;;;4.13;1.50;;;;;;;;;;10287485;28;20049;-61
2021/03/29 02:01:18;;;;;;;8.07;1.67;;;;;;;;;;10324486;28;20499;-63
2021/03/29 02:06:15;;;;;;;4.03;1.13;;;;;;;;;;10310074;28;20036;-62
2021/03/29 02:11:14;;;;;;;2.25;1.00;;;;;;;;;;10312094;28;20033;-64
2021/03/29 02:16:13;;;;;;;2.53;1.02;;;;;;;;;;10307903;28;20033;-63
2021/03/29 02:21:11;;;;;;;4.50;2.10;;;;;;;;;;10327857;28;20041;-63
2021/03/29 02:26:09;;;;;;;2.38;1.30;;;;;;;;;;10310822;28;20525;-63
2021/03/29 02:31:10;;;;;;;3.13;1.00;;;;;;;;;;10320084;28;20129;-64
2021/03/29 02:36:09;;;;;;;7.70;1.85;;;;;;;;;;10289900;28;20515;-62
2021/03/29 02:41:06;;;;;;;4.93;1.93;;;;;;;;;;10324460;28;20033;-65
2021/03/29 02:46:06;;;;;;;5.90;1.50;;;;;;;;;;10329185;28;20033;-64
2021/03/29 02:51:04;;;;;;;3.42;1.88;;;;;;;;;;10304970;28;20079;-64
2021/03/29 02:56:09;;;;;;;2.53;1.45;;;;;;;;;;10309699;28;20120;-68
2021/03/29 03:01:13;;;;;;;3.33;1.42;;;;;;;;;;10318994;28;20500;-65
2021/03/29 03:06:11;;;;;;;3.65;1.15;;;;;;;;;;10328300;28;20155;-65
2021/03/29 03:11:10;;;;;;;5.85;1.45;;;;;;;;;;10294291;28;20029;-63
2021/03/29 03:16:07;;;;;;;4.35;1.83;;;;;;;;;;10311325;28;20048;-66
2021/03/29 03:21:05;;;;;;;9.93;2.07;;;;;;;;;;10306832;28;20029;-65
2021/03/29 03:26:02;;;;;;;2.95;1.02;;;;;;;;;;10315617;28;20052;-65
2021/03/29 03:31:00;;;;;;;6.57;1.03;;;;;;;;;;10312922;28;20491;-64
2021/03/29 03:35:57;;;;;;;3.90;1.70;;;;;;;;;;10324130;28;20040;-64
2021/03/29 03:40:59;;;;;;;2.20;1.40;;;;;;;;;;10305595;28;20683;-64
2021/03/29 03:46:06;;;;;;;4.68;0.95;;;;;;;;;;10299306;28;20187;-65
2021/03/29 03:51:04;;;;;;;6.68;1.45;;;;;;;;;;10306472;28;20661;-63
2021/03/29 03:56:02;;;;;;;10.82;1.65;;;;;;;;;;10321156;28;20034;-64
2021/03/29 04:01:00;;;;;;;3.05;1.13;;;;;;;;;;10304764;28;20029;-65
2021/03/29 04:05:58;;;;;;;1.53;0.63;;;;;;;;;;10306488;28;20045;-65
2021/03/29 04:10:58;;;;;;;3.03;1.50;;;;;;;;;;10310918;28;20047;-65
2021/03/29 04:15:57;;;;;;;2.72;1.48;;;;;;;;;;10304768;28;20021;-65
2021/03/29 04:20:55;;;;;;;4.10;0.85;;;;;;;;;;10306939;28;20017;-64
2021/03/29 04:25:53;;;;;;;1.85;1.27;;;;;;;;;;10308806;28;20024;-62
2021/03/29 04:30:51;;;;;;;5.40;1.63;;;;;;;;;;10303539;28;20020;-63
2021/03/29 04:35:49;;;;;;;1.98;1.20;;;;;;;;;;10310581;28;20039;-63
2021/03/29 04:40:46;;;;;;;1.67;1.33;;;;;;;;;;10309175;28;20033;-64
2021/03/29 04:45:44;;;;;;;2.47;1.47;;;;;;;;;;10302292;28;20511;-66
2021/03/29 04:50:45;;;;;;;2.90;1.58;;;;;;;;;;10292040;28;20033;-65
2021/03/29 04:55:42;;;;;;;1.73;0.88;;;;;;;;;;10311468;28;20037;-64
2021/03/29 05:00:39;;;;;;;0.70;0.70;;;;;;;;;;10315019;28;20041;-66
2021/03/29 05:05:37;;;;;;;3.47;1.50;;;;;;;;;;10306826;28;20029;-65
2021/03/29 05:10:39;;;;;;;2.93;1.73;;;;;;;;;;10320443;28;20127;-64
2021/03/29 05:15:36;;;;;;;3.45;1.77;;;;;;;;;;10321226;28;20032;-65
2021/03/29 05:20:34;;;;;;;6.40;2.90;;;;;;;;;;10315088;28;20030;-63
2021/03/29 05:25:31;;;;;;;6.73;2.67;;;;;;;;;;10296051;28;20044;-65
2021/03/29 05:30:29;;;;;;;7.27;2.50;;;;;;;;;;10309011;28;20066;-66
2021/03/29 05:35:28;;;;;;;5.22;1.92;;;;;;;;;;10296679;28;20037;-65
2021/03/29 05:40:25;;;;;;;5.40;1.97;;;;;;;;;;10311283;28;20095;-64
2021/03/29 05:45:23;;;;;;;9.77;2.47;;;;;;;;;;10311949;28;20622;-65
2021/03/29 05:50:21;;;;;;;;;;;;;;;;;;10298605;28;20042;-65
2021/03/29 05:55:22;;;;;;;7.47;2.25;;;;;;;;;;10274949;28;20310;-65
2021/03/29 06:00:40;;;;;;;4.63;1.65;;;;;;;;;;10291695;28;20502;-65
2021/03/29 06:05:38;;;;;;;3.67;1.90;;;;;;;;;;10294615;28;20071;-67
2021/03/29 06:10:36;;;;;;;12.53;2.83;;;;;;;;;;10293859;28;20035;-66
2021/03/29 06:15:33;;;;;;;3.67;1.87;;;;;;;;;;10276510;28;20030;-65
2021/03/29 06:20:30;;;;;;;4.43;1.70;;;;;;;;;;10294484;28;20029;-65
2021/03/29 06:25:28;;;;;;;4.73;2.40;;;;;;;;;;10294225;28;20022;-65
2021/03/29 06:30:31;;;;;;;5.37;2.73;;;;;;;;;;10293612;28;20364;-66
2021/03/29 06:35:39;;;;;;;2.30;2.00;;;;;;;;;;10298870;28;20379;-66
2021/03/29 06:40:38;;;;;;;3.17;1.50;;;;;;;;;;10299824;28;20521;-64
2021/03/29 06:45:36;;;;;;;11.15;2.25;;;;;;;;;;10280589;28;20032;-63
2021/03/29 06:50:34;;;;;;;2.70;1.80;;;;;;;;;;10290954;28;20037;-64
2021/03/29 06:55:31;;;;;;;8.13;1.63;;;;;;;;;;10290990;28;20041;-66
2021/03/29 07:00:36;;;;;;;6.63;2.03;;;;;;;;;;10292866;28;20538;-65
2021/03/29 07:05:34;;;;;;;5.10;2.13;;;;;;;;;;10292026;28;20045;-65
2021/03/29 07:10:31;;;;;;;7.50;1.80;;;;;;;;;;10299982;28;20037;-65
2021/03/29 07:15:29;;;;;;;7.50;1.90;;;;;;;;;;10297419;28;20183;-66
2021/03/29 07:20:27;;;;;;;7.10;1.65;;;;;;;;;;10293013;28;20453;-65
2021/03/29 07:25:40;;;;;;;5.30;2.13;;;;;;;;;;10303274;28;20033;-66
2021/03/29 07:31:04;;;;;;;5.95;2.10;;;;;;;;;;10296579;28;20140;-66
2021/03/29 07:36:01;;;;;;;6.28;2.75;;;;;;;;;;10297071;28;20290;-66
2021/03/29 07:40:59;;;;;;;3.77;1.50;;;;;;;;;;10305559;28;20044;-65
2021/03/29 07:46:04;;;;;;;6.10;1.77;;;;;;;;;;10309623;28;20033;-65
2021/03/29 07:51:03;;;;;;;7.03;2.58;;;;;;;;;;10317998;28;20033;-65
2021/03/29 07:56:01;;;;;;;5.80;2.17;;;;;;;;;;10308657;28;20111;-64
2021/03/29 08:00:58;;;;;;;7.07;2.08;;;;;;;;;;10316880;28;20470;-64
2021/03/29 08:05:56;;;;;;;6.93;2.10;;;;;;;;;;10293696;28;20098;-64
2021/03/29 08:10:59;;;;;;;7.77;2.00;;;;;;;;;;10306621;28;20070;-64
2021/03/29 08:16:04;;;;;;;3.75;1.65;;;;;;;;;;10304959;28;20045;-64
2021/03/29 08:21:01;;;;;;;6.18;1.77;;;;;;;;;;10299906;28;20777;-65
2021/03/29 08:26:08;;;;;;;3.37;2.27;;;;;;;;;;10312088;28;20147;-64
2021/03/29 08:31:06;;;;;;;7.07;2.40;;;;;;;;;;10313675;28;20052;-65
2021/03/29 08:36:04;;;;;;;2.73;1.70;;;;;;;;;;10289834;28;20056;-65
2021/03/29 08:41:01;;;;;;;7.28;2.25;;;;;;;;;;10304005;28;20440;-65
2021/03/29 08:45:59;;;;;;;8.40;2.70;;;;;;;;;;10315467;28;20167;-65
2021/03/29 08:50:57;;;;;;;7.33;2.93;;;;;;;;;;10299594;28;20040;-65
2021/03/29 08:55:54;;;;;;;12.52;2.78;;;;;;;;;;10310939;28;20034;-64
2021/03/29 09:00:51;;;;;;;5.07;2.77;;;;;;;;;;10316157;28;20048;-66
2021/03/29 09:05:49;;;;;;;8.67;2.17;;;;;;;;;;10301386;28;20033;-65
2021/03/29 09:10:47;;;;;;;5.73;2.03;;;;;;;;;;10313725;28;20029;-65
2021/03/29 09:15:45;;;;;;;3.88;2.03;;;;;;;;;;10287606;28;20091;-65
2021/03/29 09:20:47;;;;;;;4.95;1.92;;;;;;;;;;10309430;28;20550;-65
2021/03/29 09:25:46;;;;;;;5.90;2.20;;;;;;;;;;10307646;28;20025;-66
2021/03/29 09:30:46;;;;;;;5.85;2.33;;;;;;;;;;10302964;28;20812;-65
2021/03/29 09:35:44;;;;;;;3.78;1.95;;;;;;;;;;10290628;28;20158;-66
2021/03/29 09:40:42;;;;;;;5.45;1.88;;;;;;;;;;10300487;28;20132;-65
2021/03/29 09:45:39;;;;;;;4.30;1.63;;;;;;;;;;10255046;28;20460;-65
2021/03/29 09:50:41;;;;;;;5.00;1.40;;;;;;;;;;10303005;28;20071;-65
2021/03/29 09:55:40;;;;;;;6.53;1.60;;;;;;;;;;10291585;28;20115;-65
2021/03/29 10:00:37;;;;;;;13.57;2.05;;;;;;;;;;10304962;28;20111;-66
2021/03/29 10:05:36;;;;;;;2.90;1.80;;;;;;;;;;10309294;28;20091;-65
2021/03/29 10:10:33;;;;;;;13.38;1.85;;;;;;;;;;10308401;28;20110;-65
2021/03/29 10:15:31;;;;;;;4.77;2.07;;;;;;;;;;10307606;28;20069;-62
2021/03/29 10:20:30;;;;;;;;;;;;;;;;;;10295909;28;20545;-64
2021/03/29 10:25:27;;;;;;;4.60;1.60;;;;;;;;;;10313804;28;20371;-65
2021/03/29 10:30:26;;;;;;;6.23;1.73;;;;;;;;;;10300384;28;20398;-65
2021/03/29 10:35:24;;;;;;;3.47;1.55;;;;;;;;;;10261987;28;20118;-66
2021/03/29 10:40:21;;;;;;;;;;;;;;;;;;10304025;28;20064;-65
2021/03/29 10:45:19;;;;;;;5.50;1.52;;;;;;;;;;10312411;28;19917;-66
2021/03/29 10:50:18;;;;;;;3.10;1.20;;;;;;;;;;10313060;28;20506;-65
2021/03/29 10:55:16;;;;;;;5.78;1.45;;;;;;;;;;10309951;28;20064;-64
2021/03/29 11:00:13;;;;;;;5.67;1.30;;;;;;;;;;10299927;28;20063;-65
2021/03/29 11:05:12;;;;;;;4.38;1.30;;;;;;;;;;10314485;28;20082;-64
2021/03/29 11:10:10;;;;;;;4.47;1.50;;;;;;;;;;10315790;28;20443;-66
2021/03/29 11:15:08;;;;;;;4.75;1.65;;;;;;;;;;10299053;28;20033;-65
2021/03/29 11:20:06;;;;;;;8.10;1.38;;;;;;;;;;10296404;28;20037;-65
2021/03/29 11:25:04;;;;;;;3.78;1.27;;;;;;;;;;10301322;28;20029;-66
2021/03/29 11:30:04;;;;;;;4.03;0.90;;;;;;;;;;10313970;28;20119;-65
2021/03/29 11:35:01;;;;;;;4.93;1.60;;;;;;;;;;10312714;28;20037;-64
2021/03/29 11:39:59;;;;;;;1.95;1.10;;;;;;;;;;10295151;28;20041;-65
2021/03/29 11:44:56;;;;;;;1.60;0.83;;;;;;;;;;10306164;28;20041;-66
2021/03/29 11:49:54;;;;;;;2.53;0.97;;;;;;;;;;10313408;28;20029;-65
2021/03/29 11:54:51;;;;;;;4.00;1.07;;;;;;;;;;10299397;28;20037;-65
2021/03/29 11:59:52;;;;;;;2.37;0.80;;;;;;;;;;10314797;28;20136;-66
2021/03/29 12:15:12;;;;;;;9.98;2.15;;;;;;;;;;10310292;28;20410;-64
2021/03/29 12:20:12;;;;;;;5.75;2.45;;;;;;;;;;10306574;28;20041;-64
2021/03/29 12:25:13;;;;;;;6.60;2.30;;;;;;;;;;10312994;28;20677;-64
2021/03/29 12:30:13;;;;;;;5.32;3.10;;;;;;;;;;10319030;28;20044;-65
2021/03/29 12:35:14;;;;;;;9.07;3.13;;;;;;;;;;10309864;28;20048;-65
2021/03/29 12:40:13;;;;;;;2.88;2.40;;;;;;;;;;10307108;28;20041;-65
2021/03/29 12:45:11;;;;;;;5.85;3.03;;;;;;;;;;10311923;28;20323;-65
2021/03/29 12:50:12;;;;;;;6.25;2.60;;;;;;;;;;10303014;28;20138;-66
2021/03/29 12:55:13;;;;;;;9.50;2.95;;;;;;;;;;10298236;28;20139;-65
2021/03/29 13:00:12;;;;;;;8.25;2.10;;;;;;;;;;10288435;28;20048;-66
2021/03/29 13:05:13;;;;;;;4.55;1.38;;;;;;;;;;10301169;28;20044;-64
2021/03/29 13:15:27;;;;;;;3.63;1.33;;;;;;;;;;10279795;28;20456;-65
2021/03/29 13:20:25;;;;;;;3.47;1.70;;;;;;;;;;10284208;28;20040;-64
2021/03/29 13:25:30;;;;;;;4.35;1.52;;;;;;;;;;10275894;28;20038;-66
2021/03/29 13:30:27;;;;;;;5.30;1.20;;;;;;;;;;10245879;28;20072;-66
2021/03/29 13:35:26;;;;;;;7.57;2.37;;;;;;;;;;10301335;28;20036;-66
2021/03/29 13:40:24;;;;;;;3.47;1.42;;;;;;;;;;10323805;28;20041;-64
2021/03/29 13:45:22;;;;;;;6.75;1.60;;;;;;;;;;10308744;28;20040;-64
2021/03/29 13:50:19;;;;;;;;;;;;;;;;;;10318296;28;20049;-65
2021/03/29 13:55:18;;;;;;;2.38;1.20;;;;;;;;;;10282217;28;20978;-66
2021/03/29 14:00:15;;;;;;;2.95;1.42;;;;;;;;;;10318074;28;20037;-65
2021/03/29 14:05:14;;;;;;;3.63;1.38;;;;;;;;;;10316943;28;20036;-65
2021/03/29 14:10:15;;;;;;;2.58;1.15;;;;;;;;;;10265677;28;20052;-66
2021/03/29 14:15:14;;;;;;;4.32;1.70;;;;;;;;;;10291090;28;20071;-66
2021/03/29 14:20:11;;;;;;;3.95;1.20;;;;;;;;;;10314847;28;20037;-66
2021/03/29 14:25:09;;;;;;;1.85;1.10;;;;;;;;;;10316686;28;20029;-67
2021/03/29 14:30:08;;;;;;;1.00;0.90;;;;;;;;;;10310572;28;20048;-68
2021/03/29 14:35:56;;;;;;;3.80;1.45;;;;;;;;;;10307439;28;20470;-67
2021/03/29 14:45:24;;;;;;;3.90;1.08;;;;;;;;;;10311585;28;20037;-66
2021/03/29 14:50:21;;;;;;;2.50;1.40;;;;;;;;;;10307298;28;20263;-65
2021/03/29 14:55:20;;;;;;;4.05;0.90;;;;;;;;;;10299375;28;20043;-66
2021/03/29 15:00:18;;;;;;;4.15;1.63;;;;;;;;;;10311289;28;20072;-66
2021/03/29 15:05:22;;;;;;;3.67;1.67;;;;;;;;;;10312929;28;20044;-66
2021/03/29 15:10:19;;;;;;;3.55;1.42;;;;;;;;;;10290629;28;20071;-65
2021/03/29 15:15:17;;;;;;;4.60;1.80;;;;;;;;;;10277125;28;20041;-66
2021/03/29 15:20:14;;;;;;;4.17;1.60;;;;;;;;;;10289401;28;20363;-65
2021/03/29 15:25:12;;;;;;;1.43;1.30;;;;;;;;;;10290376;28;20734;-65
2021/03/29 15:30:09;;;;;;;4.83;1.50;;;;;;;;;;10296351;28;20049;-66
2021/03/29 15:35:07;;;;;;;2.53;1.10;;;;;;;;;;10275836;28;20482;-66
2021/03/29 15:40:08;;;;;;;2.03;1.15;;;;;;;;;;10289056;28;20086;-66
2021/03/29 15:45:06;;;;;;;6.90;1.70;;;;;;;;;;10289623;28;20131;-66
2021/03/29 15:50:05;;;;;;;1.55;1.05;;;;;;;;;;10305423;28;20064;-65
2021/03/29 15:55:02;;;;;;;1.63;1.23;;;;;;;;;;10298673;28;20307;-66
2021/03/29 16:00:00;;;;;;;2.57;0.90;;;;;;;;;;10307262;28;20102;-66
2021/03/29 16:04:59;;;;;;;3.20;1.27;;;;;;;;;;10323279;28;20415;-66
2021/03/29 16:09:56;;;;;;;1.23;1.13;;;;;;;;;;10326370;28;20025;-67
2021/03/29 16:14:55;;;;;;;3.00;1.27;;;;;;;;;;10323291;28;20033;-67
2021/03/29 16:19:53;;;;;;;2.28;1.23;;;;;;;;;;10306690;28;20530;-66
2021/03/29 16:24:50;;;;;;;5.25;1.17;;;;;;;;;;10282773;28;20449;-66
2021/03/29 16:29:48;;;;;;;2.28;0.93;;;;;;;;;;10294789;28;20037;-66
2021/03/29 16:34:46;;;;;;;6.63;1.37;;;;;;;;;;10302425;28;20102;-65
2021/03/29 16:39:43;;;;;;;3.63;1.20;;;;;;;;;;10309769;28;20086;-66
2021/03/29 16:44:42;;;;;;;3.57;1.50;;;;;;;;;;10294087;28;20295;-65
2021/03/29 16:49:40;;;;;;;4.95;1.50;;;;;;;;;;10309394;28;20141;-65
2021/03/29 16:54:38;;;;;;;3.07;1.27;;;;;;;;;;10290737;28;20068;-66
2021/03/29 16:59:36;;;;;;;8.25;1.52;;;;;;;;;;10315789;28;20037;-65
2021/03/29 17:04:33;;;;;;;1.42;1.33;;;;;;;;;;10309432;28;20033;-65
2021/03/29 17:09:31;;;;;;;3.90;1.27;;;;;;;;;;10303244;28;20238;-66
2021/03/29 17:14:28;;;;;;;2.93;1.70;;;;;;;;;;10313767;28;20033;-65
2021/03/29 17:19:26;;;;;;;6.47;2.43;;;;;;;;;;10323717;28;20041;-66
2021/03/29 17:24:23;;;;;;;11.37;2.03;;;;;;;;;;10306459;28;20033;-63
2021/03/29 17:29:21;;;;;;;4.37;1.50;;;;;;;;;;10306214;28;20037;-66
2021/03/29 17:34:18;;;;;;;4.27;2.00;;;;;;;;;;10311961;28;20064;-65
2021/03/29 17:39:15;;;;;;;6.43;1.73;;;;;;;;;;10300872;28;20025;-65
2021/03/29 17:44:13;;;;;;;4.93;1.70;;;;;;;;;;10317021;28;20792;-65
2021/03/29 17:49:10;;;;;;;4.07;2.00;;;;;;;;;;10304476;28;20037;-66
2021/03/29 17:54:08;;;;;;;6.23;2.20;;;;;;;;;;10293715;28;20033;-65
2021/03/29 17:59:05;;;;;;;7.77;2.87;;;;;;;;;;10298798;28;20033;-67
2021/03/29 18:04:03;;;;;;;9.33;2.50;;;;;;;;;;10298396;28;20048;-65
2021/03/29 18:09:00;;;;;;;9.73;2.50;;;;;;;;;;10292613;28;20049;-66
2021/03/29 18:13:58;;;;;;;6.93;2.60;;;;;;;;;;10289959;28;20041;-65
2021/03/29 18:18:56;;;;;;;7.53;2.70;;;;;;;;;;10297701;28;20103;-66
2021/03/29 18:23:53;;;;;;;4.63;2.47;;;;;;;;;;10308899;28;20601;-65
2021/03/29 18:28:51;;;;;;;7.43;3.00;;;;;;;;;;10302622;28;20043;-66
2021/03/29 18:33:48;;;;;;;5.60;2.27;;;;;;;;;;10304159;28;20132;-65
2021/03/29 18:38:48;;;;;;;8.40;2.67;;;;;;;;;;10276869;28;20041;-67
2021/03/29 18:43:46;;;;;;;4.43;2.00;;;;;;;;;;10295627;28;20574;-66
2021/03/29 18:48:44;;;;;;;4.05;2.25;;;;;;;;;;10297193;28;20037;-66
2021/03/29 18:53:41;;;;;;;11.00;2.67;;;;;;;;;;10297376;28;20032;-67
2021/03/29 18:58:39;;;;;;;3.10;2.10;;;;;;;;;;10301949;28;21764;-66
2021/03/29 19:03:37;;;;;;;5.25;3.08;;;;;;;;;;10313865;28;20063;-65
2021/03/29 19:08:39;;;;;;;10.23;3.13;;;;;;;;;;10308208;28;20056;-65
2021/03/29 19:13:36;;;;;;;6.28;2.50;;;;;;;;;;10290693;28;20029;-66
2021/03/29 19:18:36;;;;;;;11.00;3.85;;;;;;;;;;10314739;28;20030;-64
2021/03/29 19:23:34;;;;;;;10.68;3.78;;;;;;;;;;10309954;28;20030;-65
2021/03/29 19:28:34;;;;;;;12.10;4.37;;;;;;;;;;10309493;28;20731;-65
2021/03/29 19:33:31;;;;;;;5.20;3.35;;;;;;;;;;10303404;28;20033;-65
2021/03/29 19:38:32;;;;;;;7.87;3.00;;;;;;;;;;10308464;28;20038;-65
2021/03/29 19:43:30;;;;;;;8.45;3.15;;;;;;;;;;10295361;28;20037;-65
2021/03/29 19:48:28;;;;;;;8.03;2.90;;;;;;;;;;10317273;28;20041;-66
2021/03/29 19:53:25;;;;;;;7.23;2.70;;;;;;;;;;10299924;28;20643;-66
2021/03/29 19:58:22;;;;;;;9.90;2.90;;;;;;;;;;10312264;28;20449;-65
2021/03/29 20:03:29;;;;;;;10.43;2.80;;;;;;;;;;10309405;28;20056;-66
2021/03/29 20:08:28;;;;;;;4.80;3.05;;;;;;;;;;10308359;28;20202;-65
2021/03/29 20:13:25;;;;;;;10.48;4.82;;;;;;;;;;10308024;28;20056;-65
2021/03/29 20:18:23;;;;;;;17.30;6.80;;;;;;;;;;10324122;28;20570;-65
2021/03/29 20:23:20;;;;;;;16.93;6.80;;;;;;;;;;10307419;28;20528;-65
2021/03/29 20:28:18;;;;;;;13.87;5.43;;;;;;;;;;10324800;28;20036;-66
2021/03/29 20:33:16;;;;;;;;;;;;;;;;;;10329652;28;20102;-66
2021/03/29 20:38:14;;;;;;;12.52;4.38;;;;;;;;;;10284645;28;19924;-65
2021/03/29 20:43:11;;;;;;;5.50;2.37;;;;;;;;;;10310239;28;20033;-65
2021/03/29 20:48:09;;;;;;;14.73;5.43;;;;;;;;;;10309532;28;20029;-65
2021/03/29 20:53:06;;;;;;;12.60;4.03;;;;;;;;;;10304363;28;20086;-65
2021/03/29 20:58:05;;;;;;;11.83;4.77;;;;;;;;;;10309949;28;20337;-66
2021/03/29 21:03:03;;;;;;;12.25;3.55;;;;;;;;;;10307710;28;20311;-65
2021/03/29 21:08:00;;;;;;;13.70;4.45;;;;;;;;;;10301942;28;20029;-65
2021/03/29 21:12:58;;;;;;;20.50;4.47;;;;;;;;;;10296792;28;20029;-65
2021/03/29 21:17:55;;;;;;;2.78;1.75;;;;;;;;;;10285779;28;20319;-65
2021/03/29 21:22:53;;;;;;;6.57;1.47;;;;;;;;;;10306794;28;20043;-65
2021/03/29 21:27:51;;;;;;;12.55;3.22;;;;;;;;;;10306280;28;20037;-65
2021/03/29 21:32:48;;;;;;;2.70;1.83;;;;;;;;;;10310764;28;20120;-65
2021/03/29 21:37:46;;;;;;;9.57;3.33;;;;;;;;;;10313593;28;20040;-65
2021/03/29 21:42:44;;;;;;;6.40;3.50;;;;;;;;;;10288386;28;20748;-64
2021/03/29 21:47:41;;;;;;;7.50;1.98;;;;;;;;;;10316850;28;20059;-65
2021/03/29 21:52:39;;;;;;;5.33;2.67;;;;;;;;;;10309383;28;20558;-64
2021/03/29 21:57:36;;;;;;;8.53;3.27;;;;;;;;;;10318300;28;20049;-64
2021/03/29 22:02:34;;;;;;;5.30;1.80;;;;;;;;;;10308071;28;20551;-64
2021/03/29 22:07:31;;;;;;;3.00;1.47;;;;;;;;;;10313056;28;20044;-65
2021/03/29 22:12:29;;;;;;;5.30;1.63;;;;;;;;;;10312154;28;20040;-66
2021/03/29 22:17:27;;;;;;;4.43;3.00;;;;;;;;;;10323328;28;20427;-64
2021/03/29 22:22:25;;;;;;;15.53;3.93;;;;;;;;;;10315049;28;20040;-65
2021/03/29 22:27:23;;;;;;;7.78;2.53;;;;;;;;;;10324360;28;20045;-64
2021/03/29 22:32:46;;;;;;;4.18;2.28;;;;;;;;;;10301490;28;20033;-63
2021/03/29 22:42:48;;;;;;;9.32;3.03;;;;;;;;;;10327957;28;20033;-63
2021/03/29 22:47:45;;;;;;;7.47;2.50;;;;;;;;;;10297734;28;20157;-63
2021/03/29 22:52:43;;;;;;;9.67;3.37;;;;;;;;;;10329215;28;20125;-63
2021/03/29 22:57:42;;;;;;;16.50;4.38;;;;;;;;;;10308953;28;20119;-62
2021/03/29 23:02:39;;;;;;;;;;;;;;;;;;10294591;28;20318;-63
2021/03/29 23:07:37;;;;;;;4.00;1.42;;;;;;;;;;10324235;28;20561;-65
2021/03/29 23:12:35;;;;;;;7.80;2.55;;;;;;;;;;10306577;28;20043;-65
2021/03/29 23:17:33;;;;;;;9.83;2.40;;;;;;;;;;10322686;28;20048;-64
2021/03/29 23:22:30;;;;;;;4.73;1.60;;;;;;;;;;10321783;28;20136;-65
2021/03/29 23:27:28;;;;;;;4.93;1.50;;;;;;;;;;10305479;28;20048;-64
2021/03/29 23:32:25;;;;;;;8.37;2.27;;;;;;;;;;10312706;28;20638;-64
2021/03/29 23:37:23;;;;;;;9.23;3.23;;;;;;;;;;10288486;28;20091;-65
2021/03/29 23:42:25;;;;;;;4.33;1.90;;;;;;;;;;10321534;28;20028;-65
2021/03/29 23:47:24;;;;;;;4.10;1.35;;;;;;;;;;10301899;28;20029;-66
2021/03/29 23:52:21;;;;;;;6.20;1.27;;;;;;;;;;10321053;28;20028;-64
2021/03/29 23:57:28;;;;;;;6.70;2.00;;;;;;;;;;10323772;28;20418;-65
